sensor_id;sensor_type;location;lat;lon;timestamp;pressure;altitude;pressure_sealevel;temperature;humidity
71299;BME280;59083;47.974;21.722;2022-09-21T00:02:32;100723.56;;;8.32;100.00
71299;BME280;59083;47.974;21.722;2022-09-21T00:05:34;100722.56;;;8.25;100.00
71299;BME280;59083;47.974;21.722;2022-09-21T00:08:35;100727.88;;;8.25;100.00
71299;BME280;59083;47.974;21.722;2022-09-21T00:11:36;100719.72;;;8.26;100.00
71299;BME280;59083;47.974;21.722;2022-09-21T00:14:37;100731.38;;;8.25;100.00
71299;BME280;59083;47.974;21.722;2022-09-21T00:17:39;100733.16;;;8.17;100.00
71299;BME280;59083;47.974;21.722;2022-09-21T00:20:41;100734.16;;;8.16;100.00
71299;BME280;59083;47.974;21.722;2022-09-21T00:23:45;100731.19;;;8.19;100.00
71299;BME280;59083;47.974;21.722;2022-09-21T00:26:46;100732.16;;;8.18;100.00
71299;BME280;59083;47.974;21.722;2022-09-21T00:29:48;100733.16;;;8.17;100.00
71299;BME280;59083;47.974;21.722;2022-09-21T00:32:49;100739.13;;;8.19;100.00
71299;BME280;59083;47.974;21.722;2022-09-21T00:35:50;100749.25;;;8.15;100.00
71299;BME280;59083;47.974;21.722;2022-09-21T00:38:53;100744.25;;;8.12;100.00
71299;BME280;59083;47.974;21.722;2022-09-21T00:41:55;100740.09;;;8.10;100.00
71299;BME280;59083;47.974;21.722;2022-09-21T00:44:56;100738.44;;;8.09;100.00
71299;BME280;59083;47.974;21.722;2022-09-21T00:47:58;100740.94;;;8.10;100.00
71299;BME280;59083;47.974;21.722;2022-09-21T00:51:02;100735.13;;;8.15;100.00
71299;BME280;59083;47.974;21.722;2022-09-21T00:54:12;100732.81;;;8.12;100.00
71299;BME280;59083;47.974;21.722;2022-09-21T00:57:15;100737.28;;;8.11;100.00
71299;BME280;59083;47.974;21.722;2022-09-21T01:00:18;100736.16;;;8.14;100.00
71299;BME280;59083;47.974;21.722;2022-09-21T01:03:19;100737.78;;;8.15;100.00
71299;BME280;59083;47.974;21.722;2022-09-21T01:06:20;100741.13;;;8.17;100.00
71299;BME280;59083;47.974;21.722;2022-09-21T01:09:22;100736.81;;;8.08;100.00
71299;BME280;59083;47.974;21.722;2022-09-21T01:16:15;100744.72;;;8.00;100.00
71299;BME280;59083;47.974;21.722;2022-09-21T01:19:43;100740.06;;;7.94;100.00
71299;BME280;59083;47.974;21.722;2022-09-21T01:35:54;100744.72;;;8.00;100.00
71299;BME280;59083;47.974;21.722;2022-09-21T01:39:10;100739.75;;;7.97;100.00
71299;BME280;59083;47.974;21.722;2022-09-21T01:42:13;100745.72;;;7.99;100.00
71299;BME280;59083;47.974;21.722;2022-09-21T01:45:19;100743.06;;;7.99;100.00
71299;BME280;59083;47.974;21.722;2022-09-21T01:48:23;100741.06;;;7.93;100.00
71299;BME280;59083;47.974;21.722;2022-09-21T01:51:26;100743.56;;;7.94;100.00
71299;BME280;59083;47.974;21.722;2022-09-21T01:54:36;100745.56;;;8.00;100.00
71299;BME280;59083;47.974;21.722;2022-09-21T01:57:46;100738.78;;;8.06;100.00
71299;BME280;59083;47.974;21.722;2022-09-21T02:00:51;100744.41;;;8.11;100.00
71299;BME280;59083;47.974;21.722;2022-09-21T02:03:58;100741.13;;;8.17;100.00
71299;BME280;59083;47.974;21.722;2022-09-21T02:07:01;100747.91;;;8.11;100.00
71299;BME280;59083;47.974;21.722;2022-09-21T02:10:04;100751.06;;;8.07;100.00
71299;BME280;59083;47.974;21.722;2022-09-21T02:13:08;100749.37;;;8.06;100.00
71299;BME280;59083;47.974;21.722;2022-09-21T02:26:05;100747.09;;;8.19;100.00
71299;BME280;59083;47.974;21.722;2022-09-21T02:29:36;100757.53;;;8.20;100.00
71299;BME280;59083;47.974;21.722;2022-09-21T02:35:53;100752.41;;;8.19;100.00
71299;BME280;59083;47.974;21.722;2022-09-21T02:39:17;100752.41;;;8.27;100.00
71299;BME280;59083;47.974;21.722;2022-09-21T02:42:23;100762.37;;;8.25;100.00
71299;BME280;59083;47.974;21.722;2022-09-21T02:45:36;100754.06;;;8.28;100.00
71299;BME280;59083;47.974;21.722;2022-09-21T02:49:03;100751.44;;;8.28;100.00
71299;BME280;59083;47.974;21.722;2022-09-21T02:52:12;100755.44;;;8.32;100.00
71299;BME280;59083;47.974;21.722;2022-09-21T02:55:15;100759.59;;;8.35;100.00
71299;BME280;59083;47.974;21.722;2022-09-21T02:58:19;100741.84;;;8.35;100.00
71299;BME280;59083;47.974;21.722;2022-09-21T03:01:23;100743.31;;;8.38;100.00
71299;BME280;59083;47.974;21.722;2022-09-21T03:04:26;100746.50;;;8.41;100.00
71299;BME280;59083;47.974;21.722;2022-09-21T03:07:28;100751.66;;;8.43;100.00
71299;BME280;59083;47.974;21.722;2022-09-21T03:10:29;100752.47;;;8.43;100.00
71299;BME280;59083;47.974;21.722;2022-09-21T03:13:30;100752.81;;;8.40;100.00
71299;BME280;59083;47.974;21.722;2022-09-21T03:16:32;100750.66;;;8.36;100.00
71299;BME280;59083;47.974;21.722;2022-09-21T03:19:33;100756.78;;;8.36;100.00
71299;BME280;59083;47.974;21.722;2022-09-21T03:22:34;100753.16;;;8.37;100.00
71299;BME280;59083;47.974;21.722;2022-09-21T03:25:35;100756.13;;;8.42;100.00
71299;BME280;59083;47.974;21.722;2022-09-21T03:28:38;100754.47;;;8.41;100.00
71299;BME280;59083;47.974;21.722;2022-09-21T03:31:39;100751.66;;;8.43;100.00
71299;BME280;59083;47.974;21.722;2022-09-21T03:34:40;100762.13;;;8.52;100.00
71299;BME280;59083;47.974;21.722;2022-09-21T03:37:42;100760.78;;;8.48;100.00
71299;BME280;59083;47.974;21.722;2022-09-21T03:40:47;100768.09;;;8.46;100.00
71299;BME280;59083;47.974;21.722;2022-09-21T03:43:49;100770.75;;;8.46;100.00
71299;BME280;59083;47.974;21.722;2022-09-21T03:46:50;100775.06;;;8.47;100.00
71299;BME280;59083;47.974;21.722;2022-09-21T03:49:52;100773.41;;;8.46;100.00
71299;BME280;59083;47.974;21.722;2022-09-21T03:52:56;100772.41;;;8.47;100.00
71299;BME280;59083;47.974;21.722;2022-09-21T03:55:58;100781.22;;;8.48;100.00
71299;BME280;59083;47.974;21.722;2022-09-21T03:58:59;100780.69;;;8.44;100.00
71299;BME280;59083;47.974;21.722;2022-09-21T04:02:01;100781.03;;;8.41;100.00
71299;BME280;59083;47.974;21.722;2022-09-21T04:05:03;100783.00;;;8.39;100.00
71299;BME280;59083;47.974;21.722;2022-09-21T04:08:04;100781.03;;;8.41;100.00
71299;BME280;59083;47.974;21.722;2022-09-21T04:11:16;100780.03;;;8.42;100.00
71299;BME280;59083;47.974;21.722;2022-09-21T04:14:19;100771.56;;;8.39;100.00
71299;BME280;59083;47.974;21.722;2022-09-21T04:17:20;100779.37;;;8.40;100.00
71299;BME280;59083;47.974;21.722;2022-09-21T04:20:22;100782.69;;;8.42;100.00
71299;BME280;59083;47.974;21.722;2022-09-21T04:23:23;100779.37;;;8.40;100.00
71299;BME280;59083;47.974;21.722;2022-09-21T04:26:30;100783.19;;;8.46;100.00
71299;BME280;59083;47.974;21.722;2022-09-21T04:29:32;100787.66;;;8.45;100.00
71299;BME280;59083;47.974;21.722;2022-09-21T04:32:33;100799.47;;;8.43;100.00
71299;BME280;59083;47.974;21.722;2022-09-21T04:35:35;100794.31;;;8.49;100.00
71299;BME280;59083;47.974;21.722;2022-09-21T04:38:36;100801.62;;;8.47;100.00
71299;BME280;59083;47.974;21.722;2022-09-21T04:41:38;100796.31;;;8.55;100.00
71299;BME280;59083;47.974;21.722;2022-09-21T04:44:40;100793.66;;;8.55;100.00
71299;BME280;59083;47.974;21.722;2022-09-21T04:47:41;100791.97;;;8.54;100.00
71299;BME280;59083;47.974;21.722;2022-09-21T04:50:47;100799.13;;;8.62;100.00
71299;BME280;59083;47.974;21.722;2022-09-21T04:53:49;100796.63;;;8.60;100.00
71299;BME280;59083;47.974;21.722;2022-09-21T04:56:51;100800.66;;;8.64;100.00
71299;BME280;59083;47.974;21.722;2022-09-21T04:59:52;100809.13;;;8.68;100.00
71299;BME280;59083;47.974;21.722;2022-09-21T05:02:53;100814.25;;;8.78;100.00
71299;BME280;59083;47.974;21.722;2022-09-21T05:05:56;100814.09;;;8.79;100.00
71299;BME280;59083;47.974;21.722;2022-09-21T05:08:57;100816.91;;;8.78;100.00
71299;BME280;59083;47.974;21.722;2022-09-21T05:12:17;100815.25;;;8.85;100.00
71299;BME280;59083;47.974;21.722;2022-09-21T05:15:18;100827.59;;;8.94;100.00
71299;BME280;59083;47.974;21.722;2022-09-21T05:18:22;100819.25;;;8.97;100.00
71299;BME280;59083;47.974;21.722;2022-09-21T05:21:23;100821.59;;;9.08;100.00
71299;BME280;59083;47.974;21.722;2022-09-21T05:24:24;100815.25;;;9.17;100.00
71299;BME280;59083;47.974;21.722;2022-09-21T05:27:25;100815.94;;;9.27;100.00
71299;BME280;59083;47.974;21.722;2022-09-21T05:30:27;100821.53;;;9.40;99.46
71299;BME280;59083;47.974;21.722;2022-09-21T05:33:29;100816.53;;;9.53;98.95
71299;BME280;59083;47.974;21.722;2022-09-21T05:36:47;100820.50;;;9.74;98.37
71299;BME280;59083;47.974;21.722;2022-09-21T05:39:52;100819.34;;;10.07;96.82
71299;BME280;59083;47.974;21.722;2022-09-21T05:42:54;100816.31;;;10.72;93.73
71299;BME280;59083;47.974;21.722;2022-09-21T05:46:01;100821.72;;;11.09;92.17
71299;BME280;59083;47.974;21.722;2022-09-21T05:49:21;100819.28;;;12.25;85.80
71299;BME280;59083;47.974;21.722;2022-09-21T05:55:56;100826.56;;;11.58;88.18
71299;BME280;59083;47.974;21.722;2022-09-21T06:03:02;100828.69;;;12.21;86.29
71299;BME280;59083;47.974;21.722;2022-09-21T06:06:08;100833.63;;;12.39;85.45
71299;BME280;59083;47.974;21.722;2022-09-21T06:09:09;100838.00;;;12.61;84.87
71299;BME280;59083;47.974;21.722;2022-09-21T06:12:11;100815.34;;;12.78;83.77
71299;BME280;59083;47.974;21.722;2022-09-21T06:15:14;100830.06;;;12.68;84.36
71299;BME280;59083;47.974;21.722;2022-09-21T06:18:15;100839.22;;;13.50;81.81
71299;BME280;59083;47.974;21.722;2022-09-21T06:21:16;100836.50;;;14.13;79.49
71299;BME280;59083;47.974;21.722;2022-09-21T06:24:18;100832.63;;;13.81;80.89
71299;BME280;59083;47.974;21.722;2022-09-21T06:27:19;100844.75;;;13.42;81.45
71299;BME280;59083;47.974;21.722;2022-09-21T06:30:20;100836.28;;;13.67;80.98
71299;BME280;59083;47.974;21.722;2022-09-21T06:33:21;100832.25;;;13.56;81.70
71299;BME280;59083;47.974;21.722;2022-09-21T06:36:26;100829.03;;;13.60;81.78
71299;BME280;59083;47.974;21.722;2022-09-21T06:39:27;100844.38;;;13.80;81.31
71299;BME280;59083;47.974;21.722;2022-09-21T06:42:28;100845.56;;;13.71;81.31
71299;BME280;59083;47.974;21.722;2022-09-21T06:45:30;100844.66;;;13.91;82.00
71299;BME280;59083;47.974;21.722;2022-09-21T06:48:32;100839.06;;;14.27;80.63
71299;BME280;59083;47.974;21.722;2022-09-21T06:51:33;100841.25;;;14.52;79.69
71299;BME280;59083;47.974;21.722;2022-09-21T06:54:36;100847.91;;;14.69;80.55
71299;BME280;59083;47.974;21.722;2022-09-21T06:57:38;100842.88;;;14.53;77.78
71299;BME280;59083;47.974;21.722;2022-09-21T07:00:40;100845.22;;;14.69;77.88
71299;BME280;59083;47.974;21.722;2022-09-21T07:03:42;100841.34;;;15.30;76.78
71299;BME280;59083;47.974;21.722;2022-09-21T07:06:43;100849.19;;;15.12;73.58
71299;BME280;59083;47.974;21.722;2022-09-21T07:09:45;100848.38;;;15.18;73.64
71299;BME280;59083;47.974;21.722;2022-09-21T07:12:46;100857.47;;;15.37;72.00
71299;BME280;59083;47.974;21.722;2022-09-21T07:15:49;100856.22;;;15.33;71.29
71299;BME280;59083;47.974;21.722;2022-09-21T07:18:50;100852.09;;;15.30;70.97
71299;BME280;59083;47.974;21.722;2022-09-21T07:21:54;100851.25;;;15.76;69.84
71299;BME280;59083;47.974;21.722;2022-09-21T07:24:56;100848.28;;;16.04;69.91
71299;BME280;59083;47.974;21.722;2022-09-21T07:27:59;100857.87;;;15.80;70.59
71299;BME280;59083;47.974;21.722;2022-09-21T07:31:09;100857.47;;;15.30;69.93
71299;BME280;59083;47.974;21.722;2022-09-21T07:34:10;100863.66;;;15.24;71.45
71299;BME280;59083;47.974;21.722;2022-09-21T07:37:12;100861.91;;;14.71;73.20
71299;BME280;59083;47.974;21.722;2022-09-21T07:40:14;100870.56;;;14.60;73.67
71299;BME280;59083;47.974;21.722;2022-09-21T07:43:15;100879.09;;;14.35;74.49
71299;BME280;59083;47.974;21.722;2022-09-21T07:46:17;100867.34;;;13.95;74.86
71299;BME280;59083;47.974;21.722;2022-09-21T07:49:20;100868.94;;;14.18;75.83
71299;BME280;59083;47.974;21.722;2022-09-21T07:52:21;100877.72;;;14.39;75.44
71299;BME280;59083;47.974;21.722;2022-09-21T07:55:23;100878.78;;;14.52;75.12
71299;BME280;59083;47.974;21.722;2022-09-21T07:58:24;100874.44;;;14.10;74.56
71299;BME280;59083;47.974;21.722;2022-09-21T08:01:44;100872.13;;;14.00;75.43
71299;BME280;59083;47.974;21.722;2022-09-21T08:04:45;100885.75;;;13.71;76.10
71299;BME280;59083;47.974;21.722;2022-09-21T08:07:46;100874.25;;;13.77;77.05
71299;BME280;59083;47.974;21.722;2022-09-21T08:10:48;100880.53;;;13.97;76.73
71299;BME280;59083;47.974;21.722;2022-09-21T08:13:52;100883.41;;;13.89;77.16
71299;BME280;59083;47.974;21.722;2022-09-21T08:16:54;100879.66;;;14.18;77.02
71299;BME280;59083;47.974;21.722;2022-09-21T08:19:55;100877.69;;;13.98;76.10
71299;BME280;59083;47.974;21.722;2022-09-21T08:22:56;100880.22;;;14.06;76.83
71299;BME280;59083;47.974;21.722;2022-09-21T08:26:01;100880.91;;;13.87;75.07
71299;BME280;59083;47.974;21.722;2022-09-21T08:29:03;100881.06;;;13.79;76.90
71299;BME280;59083;47.974;21.722;2022-09-21T08:32:04;100884.19;;;13.83;76.49
71299;BME280;59083;47.974;21.722;2022-09-21T08:35:07;100889.66;;;14.02;75.94
71299;BME280;59083;47.974;21.722;2022-09-21T08:38:08;100886.31;;;13.94;75.95
71299;BME280;59083;47.974;21.722;2022-09-21T08:44:23;100893.00;;;14.11;75.68
71299;BME280;59083;47.974;21.722;2022-09-21T08:47:44;100894.59;;;13.99;74.67
71299;BME280;59083;47.974;21.722;2022-09-21T08:50:55;100895.09;;;14.16;75.77
71299;BME280;59083;47.974;21.722;2022-09-21T08:53:59;100891.91;;;13.99;74.10
71299;BME280;59083;47.974;21.722;2022-09-21T08:57:03;100898.41;;;14.18;73.97
71299;BME280;59083;47.974;21.722;2022-09-21T09:00:12;100896.06;;;14.42;74.98
71299;BME280;59083;47.974;21.722;2022-09-21T09:03:25;100896.50;;;14.39;74.56
71299;BME280;59083;47.974;21.722;2022-09-21T09:20:11;100893.84;;;14.46;73.08
71299;BME280;59083;47.974;21.722;2022-09-21T09:23:21;100898.16;;;14.47;73.27
71299;BME280;59083;47.974;21.722;2022-09-21T09:32:49;100897.25;;;14.33;71.87
71299;BME280;59083;47.974;21.722;2022-09-21T09:36:02;100895.09;;;14.50;72.82
71299;BME280;59083;47.974;21.722;2022-09-21T09:39:10;100892.22;;;14.52;72.69
71299;BME280;59083;47.974;21.722;2022-09-21T09:48:49;100881.59;;;14.91;71.28
71299;BME280;59083;47.974;21.722;2022-09-21T09:51:55;100878.53;;;15.20;70.60
71299;BME280;59083;47.974;21.722;2022-09-21T09:55:13;100875.44;;;15.37;68.83
71299;BME280;59083;47.974;21.722;2022-09-21T09:58:18;100874.81;;;15.35;69.27
71299;BME280;59083;47.974;21.722;2022-09-21T10:01:46;100877.75;;;15.53;69.03
71299;BME280;59083;47.974;21.722;2022-09-21T10:05:03;100874.34;;;14.98;68.10
71299;BME280;59083;47.974;21.722;2022-09-21T10:08:39;100864.91;;;15.28;68.75
71299;BME280;59083;47.974;21.722;2022-09-21T10:11:42;100860.37;;;15.42;68.91
71299;BME280;59083;47.974;21.722;2022-09-21T10:14:48;100860.97;;;15.51;68.58
71299;BME280;59083;47.974;21.722;2022-09-21T10:18:10;100857.09;;;15.60;69.27
71299;BME280;59083;47.974;21.722;2022-09-21T10:21:21;100852.28;;;15.75;67.13
71299;BME280;59083;47.974;21.722;2022-09-21T10:24:35;100850.66;;;15.61;66.89
71299;BME280;59083;47.974;21.722;2022-09-21T10:27:42;100845.50;;;15.53;66.82
71299;BME280;59083;47.974;21.722;2022-09-21T10:30:44;100844.03;;;15.57;66.12
71299;BME280;59083;47.974;21.722;2022-09-21T10:33:49;100846.53;;;15.65;65.29
71299;BME280;59083;47.974;21.722;2022-09-21T10:36:53;100839.69;;;15.69;63.35
71299;BME280;59083;47.974;21.722;2022-09-21T10:39:55;100829.38;;;15.53;63.88
71299;BME280;59083;47.974;21.722;2022-09-21T10:43:00;100837.63;;;15.64;63.97
71299;BME280;59083;47.974;21.722;2022-09-21T10:46:01;100832.22;;;15.84;64.23
71299;BME280;59083;47.974;21.722;2022-09-21T10:49:02;100832.75;;;16.12;64.80
71299;BME280;59083;47.974;21.722;2022-09-21T10:52:04;100826.13;;;16.15;64.68
71299;BME280;59083;47.974;21.722;2022-09-21T10:55:13;100824.31;;;16.02;62.94
71299;BME280;59083;47.974;21.722;2022-09-21T10:58:14;100819.91;;;16.15;61.94
71299;BME280;59083;47.974;21.722;2022-09-21T11:01:21;100821.06;;;15.81;61.32
71299;BME280;59083;47.974;21.722;2022-09-21T11:07:34;100816.69;;;15.93;62.33
71299;BME280;59083;47.974;21.722;2022-09-21T11:10:49;100814.47;;;15.83;61.98
71299;BME280;59083;47.974;21.722;2022-09-21T11:14:13;100820.28;;;15.60;64.65
71299;BME280;59083;47.974;21.722;2022-09-21T11:17:45;100822.53;;;15.44;69.93
71299;BME280;59083;47.974;21.722;2022-09-21T11:20:58;100824.41;;;15.10;70.43
71299;BME280;59083;47.974;21.722;2022-09-21T11:27:58;100829.72;;;14.71;74.58
71299;BME280;59083;47.974;21.722;2022-09-21T11:31:32;100837.16;;;14.69;75.00
71299;BME280;59083;47.974;21.722;2022-09-21T11:38:10;100833.50;;;15.29;72.11
71299;BME280;59083;47.974;21.722;2022-09-21T11:44:50;100850.44;;;15.29;69.37
71299;BME280;59083;47.974;21.722;2022-09-21T11:48:34;100828.94;;;15.16;70.44
71299;BME280;59083;47.974;21.722;2022-09-21T11:58:46;100844.09;;;14.02;72.44
71299;BME280;59083;47.974;21.722;2022-09-21T12:02:02;100859.44;;;13.81;75.39
71299;BME280;59083;47.974;21.722;2022-09-21T12:08:55;100853.59;;;13.15;76.41
71299;BME280;59083;47.974;21.722;2022-09-21T12:12:18;100842.91;;;13.00;77.30
71299;BME280;59083;47.974;21.722;2022-09-21T12:15:33;100846.16;;;12.96;78.09
71299;BME280;59083;47.974;21.722;2022-09-21T12:18:48;100848.41;;;12.92;78.44
71299;BME280;59083;47.974;21.722;2022-09-21T12:21:55;100848.16;;;12.87;78.03
71299;BME280;59083;47.974;21.722;2022-09-21T12:25:18;100847.44;;;12.78;77.29
71299;BME280;59083;47.974;21.722;2022-09-21T12:28:29;100841.84;;;12.73;77.69
71299;BME280;59083;47.974;21.722;2022-09-21T12:34:46;100845.28;;;12.89;76.97
71299;BME280;59083;47.974;21.722;2022-09-21T12:37:56;100827.31;;;12.82;79.00
71299;BME280;59083;47.974;21.722;2022-09-21T12:41:13;100832.38;;;12.99;79.89
71299;BME280;59083;47.974;21.722;2022-09-21T12:50:51;100831.13;;;12.95;83.68
71299;BME280;59083;47.974;21.722;2022-09-21T12:53:58;100831.00;;;13.03;85.20
71299;BME280;59083;47.974;21.722;2022-09-21T12:57:14;100832.66;;;13.04;85.26
71299;BME280;59083;47.974;21.722;2022-09-21T13:00:20;100827.03;;;12.99;85.76
71299;BME280;59083;47.974;21.722;2022-09-21T13:03:33;100818.34;;;12.90;85.99
71299;BME280;59083;47.974;21.722;2022-09-21T13:09:59;100820.81;;;12.92;87.02
71299;BME280;59083;47.974;21.722;2022-09-21T13:13:02;100814.66;;;12.91;87.39
71299;BME280;59083;47.974;21.722;2022-09-21T13:16:05;100811.31;;;12.89;87.20
71299;BME280;59083;47.974;21.722;2022-09-21T13:19:22;100809.34;;;12.98;88.33
71299;BME280;59083;47.974;21.722;2022-09-21T13:22:26;100809.97;;;13.00;87.71
71299;BME280;59083;47.974;21.722;2022-09-21T13:25:32;100811.25;;;13.04;86.95
71299;BME280;59083;47.974;21.722;2022-09-21T13:28:40;100802.47;;;13.10;85.38
71299;BME280;59083;47.974;21.722;2022-09-21T13:31:52;100798.25;;;13.22;85.42
71299;BME280;59083;47.974;21.722;2022-09-21T13:41:41;100788.28;;;13.72;83.13
71299;BME280;59083;47.974;21.722;2022-09-21T13:44:43;100785.28;;;13.88;82.36
71299;BME280;59083;47.974;21.722;2022-09-21T13:47:51;100784.38;;;14.15;81.32
71299;BME280;59083;47.974;21.722;2022-09-21T13:50:58;100790.88;;;14.40;78.72
71299;BME280;59083;47.974;21.722;2022-09-21T13:54:02;100792.94;;;14.45;82.30
71299;BME280;59083;47.974;21.722;2022-09-21T14:03:22;100785.63;;;14.26;82.81
71299;BME280;59083;47.974;21.722;2022-09-21T14:06:40;100783.56;;;14.21;82.29
71299;BME280;59083;47.974;21.722;2022-09-21T14:09:55;100790.34;;;14.11;83.85
71299;BME280;59083;47.974;21.722;2022-09-21T14:12:58;100797.31;;;14.05;84.56
71299;BME280;59083;47.974;21.722;2022-09-21T14:22:35;100765.50;;;13.95;79.40
71299;BME280;59083;47.974;21.722;2022-09-21T14:25:49;100780.38;;;13.98;77.34
71299;BME280;59083;47.974;21.722;2022-09-21T14:28:51;100782.84;;;13.93;76.32
71299;BME280;59083;47.974;21.722;2022-09-21T14:31:58;100781.97;;;13.86;75.37
71299;BME280;59083;47.974;21.722;2022-09-21T14:35:05;100786.47;;;13.79;76.36
71299;BME280;59083;47.974;21.722;2022-09-21T14:38:34;100781.09;;;13.79;75.75
71299;BME280;59083;47.974;21.722;2022-09-21T14:41:41;100786.47;;;13.79;74.78
71299;BME280;59083;47.974;21.722;2022-09-21T14:44:45;100784.84;;;13.84;75.09
71299;BME280;59083;47.974;21.722;2022-09-21T14:48:05;100787.34;;;13.92;77.25
71299;BME280;59083;47.974;21.722;2022-09-21T14:51:21;100781.16;;;13.92;78.41
71299;BME280;59083;47.974;21.722;2022-09-21T14:54:47;100782.84;;;13.93;79.81
71299;BME280;59083;47.974;21.722;2022-09-21T14:58:23;100798.50;;;13.89;79.93
71299;BME280;59083;47.974;21.722;2022-09-21T15:05:03;100794.06;;;13.75;80.17
71299;BME280;59083;47.974;21.722;2022-09-21T15:19:58;100806.63;;;13.75;82.03
71299;BME280;59083;47.974;21.722;2022-09-21T15:23:00;100809.97;;;13.77;82.79
71299;BME280;59083;47.974;21.722;2022-09-21T15:26:09;100809.13;;;13.76;81.79
71299;BME280;59083;47.974;21.722;2022-09-21T15:29:25;100808.69;;;13.73;82.92
71299;BME280;59083;47.974;21.722;2022-09-21T15:32:42;100803.88;;;13.61;81.63
71299;BME280;59083;47.974;21.722;2022-09-21T15:35:45;100812.66;;;13.49;81.55
71299;BME280;59083;47.974;21.722;2022-09-21T15:38:49;100813.63;;;13.41;83.09
71299;BME280;59083;47.974;21.722;2022-09-21T15:45:16;100812.69;;;13.21;83.55
71299;BME280;59083;47.974;21.722;2022-09-21T15:48:18;100821.72;;;13.20;84.89
71299;BME280;59083;47.974;21.722;2022-09-21T15:51:30;100820.16;;;13.11;85.07
71299;BME280;59083;47.974;21.722;2022-09-21T15:54:35;100818.91;;;13.07;85.78
71299;BME280;59083;47.974;21.722;2022-09-21T15:57:40;100816.56;;;12.97;85.39
71299;BME280;59083;47.974;21.722;2022-09-21T16:00:50;100814.19;;;12.88;86.24
71299;BME280;59083;47.974;21.722;2022-09-21T16:04:04;100818.66;;;12.80;86.41
71299;BME280;59083;47.974;21.722;2022-09-21T16:07:22;100823.87;;;12.67;87.04
71299;BME280;59083;47.974;21.722;2022-09-21T16:10:38;100823.22;;;12.65;87.45
71299;BME280;59083;47.974;21.722;2022-09-21T16:13:41;100819.69;;;12.58;87.83
71299;BME280;59083;47.974;21.722;2022-09-21T16:20:19;100829.81;;;12.48;88.19
71299;BME280;59083;47.974;21.722;2022-09-21T16:23:28;100822.44;;;12.50;88.63
71299;BME280;59083;47.974;21.722;2022-09-21T16:26:33;100835.16;;;12.48;88.77
71299;BME280;59083;47.974;21.722;2022-09-21T16:29:38;100834.34;;;12.48;90.22
71299;BME280;59083;47.974;21.722;2022-09-21T16:32:39;100842.19;;;12.49;89.37
71299;BME280;59083;47.974;21.722;2022-09-21T16:35:41;100840.50;;;12.48;89.21
71299;BME280;59083;47.974;21.722;2022-09-21T16:38:43;100857.84;;;12.52;89.77
71299;BME280;59083;47.974;21.722;2022-09-21T16:41:50;100848.53;;;12.48;90.42
71299;BME280;59083;47.974;21.722;2022-09-21T16:44:51;100850.59;;;12.46;92.53
71299;BME280;59083;47.974;21.722;2022-09-21T16:47:54;100850.94;;;12.43;92.72
71299;BME280;59083;47.974;21.722;2022-09-21T16:50:57;100859.72;;;12.37;93.36
71299;BME280;59083;47.974;21.722;2022-09-21T16:53:58;100864.19;;;12.30;93.27
71299;BME280;59083;47.974;21.722;2022-09-21T16:57:01;100863.63;;;12.20;93.08
71299;BME280;59083;47.974;21.722;2022-09-21T17:00:09;100861.78;;;12.06;93.16
71299;BME280;59083;47.974;21.722;2022-09-21T17:03:10;100869.16;;;12.04;93.34
71299;BME280;59083;47.974;21.722;2022-09-21T17:06:15;100862.16;;;12.02;94.16
71299;BME280;59083;47.974;21.722;2022-09-21T17:09:30;100872.28;;;11.92;94.14
71299;BME280;59083;47.974;21.722;2022-09-21T17:12:32;100869.44;;;11.94;94.43
71299;BME280;59083;47.974;21.722;2022-09-21T17:15:33;100875.62;;;11.94;94.27
71299;BME280;59083;47.974;21.722;2022-09-21T17:18:36;100884.56;;;12.02;94.41
71299;BME280;59083;47.974;21.722;2022-09-21T17:21:37;100886.94;;;11.96;93.88
71299;BME280;59083;47.974;21.722;2022-09-21T17:24:38;100885.00;;;11.90;93.68
71299;BME280;59083;47.974;21.722;2022-09-21T17:27:39;100890.87;;;11.86;94.19
71299;BME280;59083;47.974;21.722;2022-09-21T17:30:41;100891.44;;;11.81;94.12
71299;BME280;59083;47.974;21.722;2022-09-21T17:33:42;100889.78;;;11.80;94.41
71299;BME280;59083;47.974;21.722;2022-09-21T17:36:45;100897.16;;;11.78;94.57
71299;BME280;59083;47.974;21.722;2022-09-21T17:39:46;100902.00;;;11.75;94.30
71299;BME280;59083;47.974;21.722;2022-09-21T17:42:48;100903.53;;;11.69;94.35
71299;BME280;59083;47.974;21.722;2022-09-21T17:46:25;100907.22;;;11.68;94.93
71299;BME280;59083;47.974;21.722;2022-09-21T17:49:28;100908.53;;;11.72;94.84
71299;BME280;59083;47.974;21.722;2022-09-21T17:52:29;100902.84;;;11.75;95.55
71299;BME280;59083;47.974;21.722;2022-09-21T17:55:55;100914.81;;;11.79;95.45
71299;BME280;59083;47.974;21.722;2022-09-21T17:59:02;100912.81;;;11.81;94.38
71299;BME280;59083;47.974;21.722;2022-09-21T18:02:18;100915.47;;;11.81;94.24
71299;BME280;59083;47.974;21.722;2022-09-21T18:05:26;100907.91;;;11.85;94.51
71299;BME280;59083;47.974;21.722;2022-09-21T18:08:30;100917.03;;;11.90;95.51
71299;BME280;59083;47.974;21.722;2022-09-21T18:11:50;100914.09;;;11.85;94.71
71299;BME280;59083;47.974;21.722;2022-09-21T18:18:36;100912.81;;;11.81;94.76
71299;BME280;59083;47.974;21.722;2022-09-21T18:21:42;100909.47;;;11.79;94.98
71299;BME280;59083;47.974;21.722;2022-09-21T18:24:45;100914.34;;;11.76;95.29
71299;BME280;59083;47.974;21.722;2022-09-21T18:27:47;100918.53;;;11.78;95.93
71299;BME280;59083;47.974;21.722;2022-09-21T18:30:57;100928.37;;;11.78;96.00
71299;BME280;59083;47.974;21.722;2022-09-21T18:40:39;100922.75;;;11.87;95.59